sensor_id;sensor_type;location;lat;lon;timestamp;P1;durP1;ratioP1;P2;durP2;ratioP2
3257;SDS011;1641;51.306;12.384;2023-07-29T00:00:44;4.97;;;1.23;;
3257;SDS011;1641;51.306;12.384;2023-07-29T00:03:09;1.35;;;1.25;;
3257;SDS011;1641;51.306;12.384;2023-07-29T00:05:36;1.08;;;1.05;;
3257;SDS011;1641;51.306;12.384;2023-07-29T00:08:02;1.83;;;1.30;;
3257;SDS011;1641;51.306;12.384;2023-07-29T00:10:27;1.40;;;1.13;;
3257;SDS011;1641;51.306;12.384;2023-07-29T00:12:52;3.35;;;1.30;;
3257;SDS011;1641;51.306;12.384;2023-07-29T00:15:18;1.33;;;1.23;;
3257;SDS011;1641;51.306;12.384;2023-07-29T00:17:43;1.70;;;1.40;;
3257;SDS011;1641;51.306;12.384;2023-07-29T00:20:11;1.33;;;1.23;;
3257;SDS011;1641;51.306;12.384;2023-07-29T00:22:37;2.85;;;1.30;;
3257;SDS011;1641;51.306;12.384;2023-07-29T00:25:02;2.28;;;1.60;;
3257;SDS011;1641;51.306;12.384;2023-07-29T00:27:27;3.67;;;1.60;;
3257;SDS011;1641;51.306;12.384;2023-07-29T00:29:52;7.30;;;1.35;;
3257;SDS011;1641;51.306;12.384;2023-07-29T00:32:18;1.55;;;1.45;;
3257;SDS011;1641;51.306;12.384;2023-07-29T00:34:43;1.45;;;1.23;;
3257;SDS011;1641;51.306;12.384;2023-07-29T00:37:09;1.35;;;1.25;;
3257;SDS011;1641;51.306;12.384;2023-07-29T00:39:35;2.03;;;1.40;;
3257;SDS011;1641;51.306;12.384;2023-07-29T00:42:01;1.33;;;1.23;;
3257;SDS011;1641;51.306;12.384;2023-07-29T00:44:27;2.05;;;1.38;;
3257;SDS011;1641;51.306;12.384;2023-07-29T00:46:52;1.92;;;1.23;;
3257;SDS011;1641;51.306;12.384;2023-07-29T00:49:19;1.50;;;1.38;;
3257;SDS011;1641;51.306;12.384;2023-07-29T00:51:45;1.60;;;1.50;;
3257;SDS011;1641;51.306;12.384;2023-07-29T00:54:10;3.47;;;1.50;;
3257;SDS011;1641;51.306;12.384;2023-07-29T00:56:36;1.52;;;1.35;;
3257;SDS011;1641;51.306;12.384;2023-07-29T00:59:04;1.98;;;1.55;;
3257;SDS011;1641;51.306;12.384;2023-07-29T01:01:29;1.40;;;1.30;;
3257;SDS011;1641;51.306;12.384;2023-07-29T01:03:55;1.60;;;1.50;;
3257;SDS011;1641;51.306;12.384;2023-07-29T01:06:34;2.63;;;1.95;;
3257;SDS011;1641;51.306;12.384;2023-07-29T01:15:04;1.40;;;1.30;;
3257;SDS011;1641;51.306;12.384;2023-07-29T01:20:32;1.40;;;1.30;;
3257;SDS011;1641;51.306;12.384;2023-07-29T01:23:01;1.70;;;1.60;;
3257;SDS011;1641;51.306;12.384;2023-07-29T01:25:26;2.33;;;1.67;;
3257;SDS011;1641;51.306;12.384;2023-07-29T01:27:52;4.20;;;1.75;;
3257;SDS011;1641;51.306;12.384;2023-07-29T01:30:17;1.50;;;1.40;;
3257;SDS011;1641;51.306;12.384;2023-07-29T01:32:48;1.48;;;1.38;;
3257;SDS011;1641;51.306;12.384;2023-07-29T01:35:34;1.35;;;1.25;;
3257;SDS011;1641;51.306;12.384;2023-07-29T01:38:06;1.70;;;1.60;;
3257;SDS011;1641;51.306;12.384;2023-07-29T01:40:38;2.03;;;1.80;;
3257;SDS011;1641;51.306;12.384;2023-07-29T01:43:05;1.90;;;1.77;;
3257;SDS011;1641;51.306;12.384;2023-07-29T01:45:33;1.90;;;1.80;;
3257;SDS011;1641;51.306;12.384;2023-07-29T01:48:02;1.80;;;1.70;;
3257;SDS011;1641;51.306;12.384;2023-07-29T01:50:28;2.70;;;1.80;;
3257;SDS011;1641;51.306;12.384;2023-07-29T01:52:53;3.50;;;1.60;;
3257;SDS011;1641;51.306;12.384;2023-07-29T01:55:25;2.92;;;1.90;;
3257;SDS011;1641;51.306;12.384;2023-07-29T01:57:50;1.80;;;1.70;;
3257;SDS011;1641;51.306;12.384;2023-07-29T02:00:17;3.78;;;1.45;;
3257;SDS011;1641;51.306;12.384;2023-07-29T02:02:43;4.03;;;1.60;;
3257;SDS011;1641;51.306;12.384;2023-07-29T02:05:08;2.25;;;1.42;;
3257;SDS011;1641;51.306;12.384;2023-07-29T02:07:34;3.15;;;1.30;;
3257;SDS011;1641;51.306;12.384;2023-07-29T02:09:59;1.73;;;1.48;;
3257;SDS011;1641;51.306;12.384;2023-07-29T02:12:25;2.75;;;1.58;;
3257;SDS011;1641;51.306;12.384;2023-07-29T02:14:50;1.65;;;1.55;;
3257;SDS011;1641;51.306;12.384;2023-07-29T02:17:15;1.70;;;1.58;;
3257;SDS011;1641;51.306;12.384;2023-07-29T02:19:40;1.63;;;1.30;;
3257;SDS011;1641;51.306;12.384;2023-07-29T02:22:05;1.40;;;1.30;;
3257;SDS011;1641;51.306;12.384;2023-07-29T02:24:31;1.58;;;1.48;;
3257;SDS011;1641;51.306;12.384;2023-07-29T02:26:56;1.60;;;1.48;;
3257;SDS011;1641;51.306;12.384;2023-07-29T02:29:28;2.15;;;1.80;;
3257;SDS011;1641;51.306;12.384;2023-07-29T02:31:54;4.78;;;1.63;;
3257;SDS011;1641;51.306;12.384;2023-07-29T02:34:19;3.10;;;1.45;;
3257;SDS011;1641;51.306;12.384;2023-07-29T02:36:44;2.33;;;1.33;;
3257;SDS011;1641;51.306;12.384;2023-07-29T02:39:10;2.42;;;1.33;;
3257;SDS011;1641;51.306;12.384;2023-07-29T02:41:36;2.10;;;1.80;;
3257;SDS011;1641;51.306;12.384;2023-07-29T02:44:01;1.45;;;1.35;;
3257;SDS011;1641;51.306;12.384;2023-07-29T02:46:26;2.15;;;1.85;;
3257;SDS011;1641;51.306;12.384;2023-07-29T02:48:52;2.38;;;1.67;;
3257;SDS011;1641;51.306;12.384;2023-07-29T02:51:17;1.70;;;1.60;;
3257;SDS011;1641;51.306;12.384;2023-07-29T02:53:42;1.77;;;1.67;;
3257;SDS011;1641;51.306;12.384;2023-07-29T02:56:08;1.58;;;1.48;;
3257;SDS011;1641;51.306;12.384;2023-07-29T02:58:40;2.60;;;1.80;;
3257;SDS011;1641;51.306;12.384;2023-07-29T03:01:06;1.50;;;1.40;;
3257;SDS011;1641;51.306;12.384;2023-07-29T03:03:31;3.58;;;1.88;;
3257;SDS011;1641;51.306;12.384;2023-07-29T03:05:59;1.70;;;1.60;;
3257;SDS011;1641;51.306;12.384;2023-07-29T03:08:26;2.55;;;1.70;;
3257;SDS011;1641;51.306;12.384;2023-07-29T03:10:51;2.20;;;1.88;;
3257;SDS011;1641;51.306;12.384;2023-07-29T03:13:17;2.65;;;1.70;;
3257;SDS011;1641;51.306;12.384;2023-07-29T03:15:42;2.33;;;1.88;;
3257;SDS011;1641;51.306;12.384;2023-07-29T03:18:07;1.80;;;1.70;;
3257;SDS011;1641;51.306;12.384;2023-07-29T03:20:32;2.15;;;2.03;;
3257;SDS011;1641;51.306;12.384;2023-07-29T03:22:58;4.00;;;2.10;;
3257;SDS011;1641;51.306;12.384;2023-07-29T03:25:23;2.13;;;1.92;;
3257;SDS011;1641;51.306;12.384;2023-07-29T03:27:51;2.20;;;1.88;;
3257;SDS011;1641;51.306;12.384;2023-07-29T03:30:19;2.70;;;1.80;;
3257;SDS011;1641;51.306;12.384;2023-07-29T03:32:46;4.03;;;1.83;;
3257;SDS011;1641;51.306;12.384;2023-07-29T03:35:11;1.90;;;1.80;;
3257;SDS011;1641;51.306;12.384;2023-07-29T03:37:36;2.53;;;1.90;;
3257;SDS011;1641;51.306;12.384;2023-07-29T03:40:02;2.88;;;1.90;;
3257;SDS011;1641;51.306;12.384;2023-07-29T03:42:34;2.88;;;1.98;;
3257;SDS011;1641;51.306;12.384;2023-07-29T03:44:59;3.88;;;2.08;;
3257;SDS011;1641;51.306;12.384;2023-07-29T03:47:24;2.55;;;2.15;;
3257;SDS011;1641;51.306;12.384;2023-07-29T03:49:49;3.00;;;2.33;;
3257;SDS011;1641;51.306;12.384;2023-07-29T03:52:15;2.45;;;2.22;;
3257;SDS011;1641;51.306;12.384;2023-07-29T03:54:40;3.42;;;1.90;;
3257;SDS011;1641;51.306;12.384;2023-07-29T03:57:06;2.20;;;1.92;;
3257;SDS011;1641;51.306;12.384;2023-07-29T03:59:31;2.10;;;1.90;;
3257;SDS011;1641;51.306;12.384;2023-07-29T04:01:56;1.80;;;1.70;;
3257;SDS011;1641;51.306;12.384;2023-07-29T04:04:21;4.05;;;2.30;;
3257;SDS011;1641;51.306;12.384;2023-07-29T04:06:47;2.53;;;1.90;;
3257;SDS011;1641;51.306;12.384;2023-07-29T04:09:12;2.33;;;2.10;;
3257;SDS011;1641;51.306;12.384;2023-07-29T04:11:38;2.00;;;1.90;;
3257;SDS011;1641;51.306;12.384;2023-07-29T04:14:03;2.35;;;1.80;;
3257;SDS011;1641;51.306;12.384;2023-07-29T04:16:28;1.88;;;1.73;;
3257;SDS011;1641;51.306;12.384;2023-07-29T04:18:54;2.63;;;1.80;;
3257;SDS011;1641;51.306;12.384;2023-07-29T04:21:19;2.25;;;1.90;;
3257;SDS011;1641;51.306;12.384;2023-07-29T04:23:45;2.00;;;1.88;;
3257;SDS011;1641;51.306;12.384;2023-07-29T04:26:10;4.63;;;2.08;;
3257;SDS011;1641;51.306;12.384;2023-07-29T04:28:35;1.92;;;1.77;;
3257;SDS011;1641;51.306;12.384;2023-07-29T04:31:01;3.25;;;2.20;;
3257;SDS011;1641;51.306;12.384;2023-07-29T04:33:26;4.13;;;2.28;;
3257;SDS011;1641;51.306;12.384;2023-07-29T04:35:51;3.92;;;2.38;;
3257;SDS011;1641;51.306;12.384;2023-07-29T04:38:17;3.88;;;2.38;;
3257;SDS011;1641;51.306;12.384;2023-07-29T04:40:42;2.67;;;2.28;;
3257;SDS011;1641;51.306;12.384;2023-07-29T04:43:07;3.20;;;2.35;;
3257;SDS011;1641;51.306;12.384;2023-07-29T04:45:33;2.08;;;1.92;;
3257;SDS011;1641;51.306;12.384;2023-07-29T04:47:58;1.80;;;1.70;;
3257;SDS011;1641;51.306;12.384;2023-07-29T04:50:24;2.70;;;1.75;;
3257;SDS011;1641;51.306;12.384;2023-07-29T04:52:49;1.75;;;1.65;;
3257;SDS011;1641;51.306;12.384;2023-07-29T04:55:14;2.03;;;1.50;;
3257;SDS011;1641;51.306;12.384;2023-07-29T04:57:42;1.83;;;1.63;;
3257;SDS011;1641;51.306;12.384;2023-07-29T05:00:08;3.17;;;1.48;;
3257;SDS011;1641;51.306;12.384;2023-07-29T05:02:34;1.67;;;1.58;;
3257;SDS011;1641;51.306;12.384;2023-07-29T05:05:00;1.80;;;1.70;;
3257;SDS011;1641;51.306;12.384;2023-07-29T05:07:25;1.85;;;1.60;;
3257;SDS011;1641;51.306;12.384;2023-07-29T05:09:56;2.55;;;1.33;;
3257;SDS011;1641;51.306;12.384;2023-07-29T05:12:22;2.30;;;1.67;;
3257;SDS011;1641;51.306;12.384;2023-07-29T05:14:47;3.08;;;1.42;;
3257;SDS011;1641;51.306;12.384;2023-07-29T05:17:13;1.40;;;1.30;;
3257;SDS011;1641;51.306;12.384;2023-07-29T05:19:38;1.13;;;1.10;;
3257;SDS011;1641;51.306;12.384;2023-07-29T05:22:03;1.47;;;1.37;;
3257;SDS011;1641;51.306;12.384;2023-07-29T05:24:29;1.45;;;1.20;;
3257;SDS011;1641;51.306;12.384;2023-07-29T05:26:54;1.40;;;1.30;;
3257;SDS011;1641;51.306;12.384;2023-07-29T05:29:19;2.40;;;1.15;;
3257;SDS011;1641;51.306;12.384;2023-07-29T05:31:45;2.47;;;1.83;;
3257;SDS011;1641;51.306;12.384;2023-07-29T05:34:10;3.03;;;1.35;;
3257;SDS011;1641;51.306;12.384;2023-07-29T05:36:38;4.47;;;1.35;;
3257;SDS011;1641;51.306;12.384;2023-07-29T05:39:04;2.65;;;1.52;;
3257;SDS011;1641;51.306;12.384;2023-07-29T05:41:29;2.10;;;1.35;;
3257;SDS011;1641;51.306;12.384;2023-07-29T05:43:54;1.30;;;1.20;;
3257;SDS011;1641;51.306;12.384;2023-07-29T05:46:20;1.50;;;1.40;;
3257;SDS011;1641;51.306;12.384;2023-07-29T05:48:45;2.42;;;1.40;;
3257;SDS011;1641;51.306;12.384;2023-07-29T05:51:13;2.25;;;1.20;;
3257;SDS011;1641;51.306;12.384;2023-07-29T05:53:38;3.53;;;1.23;;
3257;SDS011;1641;51.306;12.384;2023-07-29T05:56:03;2.15;;;1.33;;
3257;SDS011;1641;51.306;12.384;2023-07-29T05:58:29;2.28;;;1.05;;
3257;SDS011;1641;51.306;12.384;2023-07-29T06:00:56;1.30;;;1.20;;
3257;SDS011;1641;51.306;12.384;2023-07-29T06:03:21;1.38;;;1.00;;
3257;SDS011;1641;51.306;12.384;2023-07-29T06:05:48;1.42;;;0.82;;
3257;SDS011;1641;51.306;12.384;2023-07-29T06:08:13;1.17;;;1.10;;
3257;SDS011;1641;51.306;12.384;2023-07-29T06:10:39;0.80;;;0.80;;
3257;SDS011;1641;51.306;12.384;2023-07-29T06:13:04;2.55;;;1.00;;
3257;SDS011;1641;51.306;12.384;2023-07-29T06:15:29;1.92;;;0.93;;
3257;SDS011;1641;51.306;12.384;2023-07-29T06:17:54;1.38;;;1.05;;
3257;SDS011;1641;51.306;12.384;2023-07-29T06:20:20;1.77;;;1.17;;
3257;SDS011;1641;51.306;12.384;2023-07-29T06:22:45;1.20;;;0.87;;
3257;SDS011;1641;51.306;12.384;2023-07-29T06:25:11;0.73;;;0.73;;
3257;SDS011;1641;51.306;12.384;2023-07-29T06:27:36;2.75;;;1.13;;
3257;SDS011;1641;51.306;12.384;2023-07-29T06:30:01;1.17;;;1.00;;
3257;SDS011;1641;51.306;12.384;2023-07-29T06:32:27;1.40;;;1.30;;
3257;SDS011;1641;51.306;12.384;2023-07-29T06:34:52;1.70;;;1.20;;
3257;SDS011;1641;51.306;12.384;2023-07-29T06:37:28;1.35;;;1.13;;
3257;SDS011;1641;51.306;12.384;2023-07-29T06:39:53;1.20;;;1.10;;
3257;SDS011;1641;51.306;12.384;2023-07-29T06:42:19;1.23;;;1.00;;
3257;SDS011;1641;51.306;12.384;2023-07-29T06:44:44;1.00;;;0.90;;
3257;SDS011;1641;51.306;12.384;2023-07-29T06:47:11;1.00;;;1.00;;
3257;SDS011;1641;51.306;12.384;2023-07-29T06:49:36;1.02;;;0.93;;
3257;SDS011;1641;51.306;12.384;2023-07-29T06:52:01;2.23;;;1.20;;
3257;SDS011;1641;51.306;12.384;2023-07-29T06:57:26;1.67;;;1.58;;
3257;SDS011;1641;51.306;12.384;2023-07-29T06:59:52;1.33;;;1.23;;
3257;SDS011;1641;51.306;12.384;2023-07-29T07:02:17;1.20;;;1.00;;
3257;SDS011;1641;51.306;12.384;2023-07-29T07:04:42;0.93;;;0.90;;
3257;SDS011;1641;51.306;12.384;2023-07-29T07:07:07;1.35;;;1.25;;
3257;SDS011;1641;51.306;12.384;2023-07-29T07:09:33;4.73;;;1.70;;
3257;SDS011;1641;51.306;12.384;2023-07-29T07:12:01;1.45;;;1.35;;
3257;SDS011;1641;51.306;12.384;2023-07-29T07:14:27;3.53;;;0.98;;
3257;SDS011;1641;51.306;12.384;2023-07-29T07:16:52;1.02;;;1.02;;
3257;SDS011;1641;51.306;12.384;2023-07-29T07:19:17;2.20;;;1.00;;
3257;SDS011;1641;51.306;12.384;2023-07-29T07:21:43;0.98;;;0.90;;
3257;SDS011;1641;51.306;12.384;2023-07-29T07:24:08;1.38;;;0.98;;
3257;SDS011;1641;51.306;12.384;2023-07-29T07:26:33;1.00;;;0.90;;
3257;SDS011;1641;51.306;12.384;2023-07-29T07:29:08;1.02;;;1.00;;
3257;SDS011;1641;51.306;12.384;2023-07-29T07:31:49;3.95;;;1.50;;
3257;SDS011;1641;51.306;12.384;2023-07-29T07:34:17;1.30;;;1.20;;
3257;SDS011;1641;51.306;12.384;2023-07-29T07:36:42;1.63;;;1.38;;
3257;SDS011;1641;51.306;12.384;2023-07-29T07:39:07;2.00;;;1.10;;
3257;SDS011;1641;51.306;12.384;2023-07-29T07:41:33;1.95;;;1.15;;
3257;SDS011;1641;51.306;12.384;2023-07-29T07:43:58;1.70;;;1.60;;
3257;SDS011;1641;51.306;12.384;2023-07-29T07:46:23;1.43;;;1.33;;
3257;SDS011;1641;51.306;12.384;2023-07-29T07:48:48;3.80;;;1.40;;
3257;SDS011;1641;51.306;12.384;2023-07-29T07:51:14;1.13;;;1.10;;
3257;SDS011;1641;51.306;12.384;2023-07-29T07:53:39;1.35;;;1.00;;
3257;SDS011;1641;51.306;12.384;2023-07-29T07:56:05;1.17;;;1.00;;
3257;SDS011;1641;51.306;12.384;2023-07-29T07:58:31;1.20;;;1.10;;
3257;SDS011;1641;51.306;12.384;2023-07-29T08:01:03;1.88;;;1.27;;
3257;SDS011;1641;51.306;12.384;2023-07-29T08:03:29;2.05;;;1.20;;
3257;SDS011;1641;51.306;12.384;2023-07-29T08:05:55;1.63;;;1.52;;
3257;SDS011;1641;51.306;12.384;2023-07-29T08:08:20;2.03;;;1.35;;
3257;SDS011;1641;51.306;12.384;2023-07-29T08:10:45;1.58;;;1.48;;
3257;SDS011;1641;51.306;12.384;2023-07-29T08:13:11;1.40;;;1.30;;
3257;SDS011;1641;51.306;12.384;2023-07-29T08:15:36;1.50;;;1.40;;
3257;SDS011;1641;51.306;12.384;2023-07-29T08:18:01;1.47;;;1.20;;
3257;SDS011;1641;51.306;12.384;2023-07-29T08:20:26;1.73;;;1.20;;
3257;SDS011;1641;51.306;12.384;2023-07-29T08:22:51;1.50;;;1.40;;
3257;SDS011;1641;51.306;12.384;2023-07-29T08:25:17;2.67;;;1.10;;
3257;SDS011;1641;51.306;12.384;2023-07-29T08:27:42;1.50;;;1.40;;
3257;SDS011;1641;51.306;12.384;2023-07-29T08:30:08;1.70;;;1.20;;
3257;SDS011;1641;51.306;12.384;2023-07-29T08:32:33;1.92;;;1.05;;
3257;SDS011;1641;51.306;12.384;2023-07-29T08:34:59;3.13;;;1.20;;
3257;SDS011;1641;51.306;12.384;2023-07-29T08:37:24;2.33;;;1.52;;
3257;SDS011;1641;51.306;12.384;2023-07-29T08:39:49;2.13;;;1.48;;
3257;SDS011;1641;51.306;12.384;2023-07-29T08:42:15;1.98;;;1.10;;
3257;SDS011;1641;51.306;12.384;2023-07-29T08:44:44;1.42;;;1.10;;
3257;SDS011;1641;51.306;12.384;2023-07-29T08:47:13;3.20;;;1.67;;
3257;SDS011;1641;51.306;12.384;2023-07-29T08:49:39;2.72;;;1.10;;
3257;SDS011;1641;51.306;12.384;2023-07-29T08:52:06;4.47;;;1.02;;
3257;SDS011;1641;51.306;12.384;2023-07-29T08:54:32;1.20;;;1.10;;
3257;SDS011;1641;51.306;12.384;2023-07-29T08:56:57;3.17;;;1.02;;
3257;SDS011;1641;51.306;12.384;2023-07-29T08:59:24;5.10;;;1.10;;
3257;SDS011;1641;51.306;12.384;2023-07-29T09:01:51;2.10;;;0.80;;
3257;SDS011;1641;51.306;12.384;2023-07-29T09:04:20;1.10;;;1.00;;
3257;SDS011;1641;51.306;12.384;2023-07-29T09:06:45;4.72;;;1.38;;
3257;SDS011;1641;51.306;12.384;2023-07-29T09:09:13;1.63;;;1.33;;
3257;SDS011;1641;51.306;12.384;2023-07-29T09:11:38;1.13;;;1.08;;
3257;SDS011;1641;51.306;12.384;2023-07-29T09:14:03;1.63;;;0.90;;
3257;SDS011;1641;51.306;12.384;2023-07-29T09:16:28;1.07;;;1.07;;
3257;SDS011;1641;51.306;12.384;2023-07-29T09:18:54;2.40;;;1.08;;
3257;SDS011;1641;51.306;12.384;2023-07-29T09:21:23;3.03;;;1.00;;
3257;SDS011;1641;51.306;12.384;2023-07-29T09:23:53;1.27;;;1.10;;
3257;SDS011;1641;51.306;12.384;2023-07-29T09:26:25;1.33;;;0.90;;
3257;SDS011;1641;51.306;12.384;2023-07-29T09:28:53;1.35;;;0.82;;
3257;SDS011;1641;51.306;12.384;2023-07-29T09:31:20;0.73;;;0.68;;
3257;SDS011;1641;51.306;12.384;2023-07-29T09:33:46;1.20;;;1.10;;
3257;SDS011;1641;51.306;12.384;2023-07-29T09:36:11;1.02;;;0.88;;
3257;SDS011;1641;51.306;12.384;2023-07-29T09:38:37;1.67;;;1.05;;
3257;SDS011;1641;51.306;12.384;2023-07-29T09:41:02;2.83;;;0.90;;
3257;SDS011;1641;51.306;12.384;2023-07-29T09:43:32;0.98;;;0.88;;
3257;SDS011;1641;51.306;12.384;2023-07-29T09:46:02;2.67;;;0.93;;
3257;SDS011;1641;51.306;12.384;2023-07-29T09:48:28;1.25;;;0.85;;
3257;SDS011;1641;51.306;12.384;2023-07-29T09:50:57;0.60;;;0.60;;
3257;SDS011;1641;51.306;12.384;2023-07-29T09:53:22;5.82;;;1.00;;
3257;SDS011;1641;51.306;12.384;2023-07-29T09:55:49;0.93;;;0.93;;
3257;SDS011;1641;51.306;12.384;2023-07-29T09:58:15;1.10;;;0.80;;
3257;SDS011;1641;51.306;12.384;2023-07-29T10:00:44;0.88;;;0.80;;
3257;SDS011;1641;51.306;12.384;2023-07-29T10:03:11;0.80;;;0.80;;
3257;SDS011;1641;51.306;12.384;2023-07-29T10:05:39;1.10;;;1.00;;
3257;SDS011;1641;51.306;12.384;2023-07-29T10:08:06;2.42;;;1.10;;
3257;SDS011;1641;51.306;12.384;2023-07-29T10:10:31;3.85;;;1.05;;
3257;SDS011;1641;51.306;12.384;2023-07-29T10:12:57;3.33;;;0.75;;
3257;SDS011;1641;51.306;12.384;2023-07-29T10:15:22;0.80;;;0.80;;
3257;SDS011;1641;51.306;12.384;2023-07-29T10:17:49;1.00;;;0.88;;
3257;SDS011;1641;51.306;12.384;2023-07-29T10:20:15;1.10;;;1.00;;
3257;SDS011;1641;51.306;12.384;2023-07-29T10:22:42;0.90;;;0.85;;
3257;SDS011;1641;51.306;12.384;2023-07-29T10:27:52;1.60;;;1.50;;
3257;SDS011;1641;51.306;12.384;2023-07-29T10:30:20;0.70;;;0.70;;
3257;SDS011;1641;51.306;12.384;2023-07-29T10:32:46;7.75;;;1.80;;
3257;SDS011;1641;51.306;12.384;2023-07-29T10:35:14;8.20;;;1.38;;
3257;SDS011;1641;51.306;12.384;2023-07-29T10:37:40;2.25;;;1.20;;
3257;SDS011;1641;51.306;12.384;2023-07-29T10:40:07;0.88;;;0.88;;
3257;SDS011;1641;51.306;12.384;2023-07-29T10:42:33;0.80;;;0.80;;
3257;SDS011;1641;51.306;12.384;2023-07-29T10:44:58;1.20;;;1.10;;
3257;SDS011;1641;51.306;12.384;2023-07-29T10:47:25;2.50;;;1.13;;
3257;SDS011;1641;51.306;12.384;2023-07-29T10:49:57;3.10;;;1.10;;
3257;SDS011;1641;51.306;12.384;2023-07-29T10:52:30;1.52;;;1.42;;
3257;SDS011;1641;51.306;12.384;2023-07-29T10:55:04;1.20;;;1.00;;
3257;SDS011;1641;51.306;12.384;2023-07-29T10:57:51;1.65;;;1.40;;
3257;SDS011;1641;51.306;12.384;2023-07-29T11:00:19;1.63;;;1.10;;
3257;SDS011;1641;51.306;12.384;2023-07-29T11:02:56;3.30;;;1.30;;
3257;SDS011;1641;51.306;12.384;2023-07-29T11:05:27;1.20;;;1.05;;
3257;SDS011;1641;51.306;12.384;2023-07-29T11:08:49;0.90;;;0.90;;
3257;SDS011;1641;51.306;12.384;2023-07-29T11:11:06;1.77;;;1.05;;
3257;SDS011;1641;51.306;12.384;2023-07-29T11:13:36;1.33;;;1.23;;
3257;SDS011;1641;51.306;12.384;2023-07-29T11:16:02;1.70;;;1.60;;
3257;SDS011;1641;51.306;12.384;2023-07-29T11:18:29;2.35;;;1.30;;
3257;SDS011;1641;51.306;12.384;2023-07-29T11:20:56;1.60;;;1.35;;
3257;SDS011;1641;51.306;12.384;2023-07-29T11:23:35;1.38;;;1.00;;
3257;SDS011;1641;51.306;12.384;2023-07-29T11:26:02;1.70;;;1.33;;
3257;SDS011;1641;51.306;12.384;2023-07-29T11:28:28;3.15;;;1.23;;
3257;SDS011;1641;51.306;12.384;2023-07-29T11:30:56;1.20;;;1.00;;
3257;SDS011;1641;51.306;12.384;2023-07-29T11:33:26;0.82;;;0.82;;
3257;SDS011;1641;51.306;12.384;2023-07-29T11:35:53;1.80;;;0.90;;
3257;SDS011;1641;51.306;12.384;2023-07-29T11:38:19;2.67;;;1.30;;
3257;SDS011;1641;51.306;12.384;2023-07-29T11:40:56;1.10;;;1.08;;
3257;SDS011;1641;51.306;12.384;2023-07-29T11:43:24;1.88;;;1.00;;
3257;SDS011;1641;51.306;12.384;2023-07-29T11:45:50;1.58;;;1.20;;
3257;SDS011;1641;51.306;12.384;2023-07-29T11:48:17;1.95;;;1.20;;
3257;SDS011;1641;51.306;12.384;2023-07-29T11:50:42;1.48;;;1.38;;
3257;SDS011;1641;51.306;12.384;2023-07-29T11:53:08;1.63;;;1.20;;
3257;SDS011;1641;51.306;12.384;2023-07-29T11:55:33;1.58;;;1.48;;
3257;SDS011;1641;51.306;12.384;2023-07-29T11:57:59;1.30;;;1.20;;
3257;SDS011;1641;51.306;12.384;2023-07-29T12:00:26;2.47;;;1.20;;
3257;SDS011;1641;51.306;12.384;2023-07-29T12:02:52;1.67;;;1.13;;
3257;SDS011;1641;51.306;12.384;2023-07-29T12:05:17;2.65;;;1.30;;
3257;SDS011;1641;51.306;12.384;2023-07-29T12:07:46;1.63;;;1.27;;
3257;SDS011;1641;51.306;12.384;2023-07-29T12:10:12;1.55;;;1.20;;
3257;SDS011;1641;51.306;12.384;2023-07-29T12:12:40;2.47;;;1.33;;
3257;SDS011;1641;51.306;12.384;2023-07-29T12:15:09;1.25;;;1.10;;
3257;SDS011;1641;51.306;12.384;2023-07-29T12:17:39;1.63;;;1.30;;
3257;SDS011;1641;51.306;12.384;2023-07-29T12:20:07;1.90;;;1.43;;
3257;SDS011;1641;51.306;12.384;2023-07-29T12:22:33;2.55;;;1.15;;
3257;SDS011;1641;51.306;12.384;2023-07-29T12:24:59;1.30;;;1.20;;
3257;SDS011;1641;51.306;12.384;2023-07-29T12:27:24;1.33;;;1.23;;
3257;SDS011;1641;51.306;12.384;2023-07-29T12:29:51;4.45;;;1.30;;
3257;SDS011;1641;51.306;12.384;2023-07-29T12:32:18;2.10;;;1.08;;
3257;SDS011;1641;51.306;12.384;2023-07-29T12:34:43;1.20;;;1.10;;
3257;SDS011;1641;51.306;12.384;2023-07-29T12:37:09;3.13;;;1.60;;
3257;SDS011;1641;51.306;12.384;2023-07-29T12:39:35;3.15;;;1.48;;
3257;SDS011;1641;51.306;12.384;2023-07-29T12:42:04;1.67;;;1.52;;
3257;SDS011;1641;51.306;12.384;2023-07-29T12:44:31;1.48;;;1.27;;
3257;SDS011;1641;51.306;12.384;2023-07-29T12:46:58;1.50;;;1.05;;
3257;SDS011;1641;51.306;12.384;2023-07-29T12:49:24;1.58;;;1.17;;
3257;SDS011;1641;51.306;12.384;2023-07-29T12:51:49;2.50;;;1.15;;
3257;SDS011;1641;51.306;12.384;2023-07-29T12:54:15;1.30;;;1.20;;
3257;SDS011;1641;51.306;12.384;2023-07-29T12:56:40;1.23;;;1.10;;
3257;SDS011;1641;51.306;12.384;2023-07-29T12:59:06;1.80;;;1.30;;
3257;SDS011;1641;51.306;12.384;2023-07-29T13:01:32;1.20;;;1.10;;
3257;SDS011;1641;51.306;12.384;2023-07-29T13:03:57;1.35;;;1.25;;
3257;SDS011;1641;51.306;12.384;2023-07-29T13:06:22;2.92;;;1.30;;
3257;SDS011;1641;51.306;12.384;2023-07-29T13:08:48;1.10;;;1.02;;
3257;SDS011;1641;51.306;12.384;2023-07-29T13:11:14;1.58;;;1.30;;
3257;SDS011;1641;51.306;12.384;2023-07-29T13:13:40;1.33;;;1.05;;
3257;SDS011;1641;51.306;12.384;2023-07-29T13:16:05;1.42;;;1.13;;
3257;SDS011;1641;51.306;12.384;2023-07-29T13:18:31;1.98;;;0.90;;
3257;SDS011;1641;51.306;12.384;2023-07-29T13:20:56;2.65;;;1.25;;
3257;SDS011;1641;51.306;12.384;2023-07-29T13:23:22;1.17;;;1.08;;
3257;SDS011;1641;51.306;12.384;2023-07-29T13:25:47;0.98;;;0.98;;
3257;SDS011;1641;51.306;12.384;2023-07-29T13:28:13;1.42;;;1.30;;
3257;SDS011;1641;51.306;12.384;2023-07-29T13:30:41;1.40;;;1.30;;
3257;SDS011;1641;51.306;12.384;2023-07-29T13:33:07;1.52;;;1.00;;
3257;SDS011;1641;51.306;12.384;2023-07-29T13:35:32;1.67;;;1.23;;
3257;SDS011;1641;51.306;12.384;2023-07-29T13:37:58;1.15;;;1.05;;
3257;SDS011;1641;51.306;12.384;2023-07-29T13:40:23;0.80;;;0.80;;
3257;SDS011;1641;51.306;12.384;2023-07-29T13:42:48;4.15;;;1.30;;
3257;SDS011;1641;51.306;12.384;2023-07-29T13:45:13;3.03;;;1.10;;
3257;SDS011;1641;51.306;12.384;2023-07-29T13:47:39;2.88;;;1.00;;
3257;SDS011;1641;51.306;12.384;2023-07-29T13:50:04;1.43;;;1.33;;
3257;SDS011;1641;51.306;12.384;2023-07-29T13:52:32;1.35;;;1.13;;
3257;SDS011;1641;51.306;12.384;2023-07-29T13:54:57;1.25;;;1.10;;
3257;SDS011;1641;51.306;12.384;2023-07-29T13:57:23;1.73;;;1.17;;
3257;SDS011;1641;51.306;12.384;2023-07-29T13:59:48;1.50;;;1.40;;
3257;SDS011;1641;51.306;12.384;2023-07-29T14:02:13;4.50;;;1.10;;
3257;SDS011;1641;51.306;12.384;2023-07-29T14:04:39;1.65;;;1.30;;
3257;SDS011;1641;51.306;12.384;2023-07-29T14:07:04;1.40;;;1.30;;
3257;SDS011;1641;51.306;12.384;2023-07-29T14:09:32;3.05;;;1.30;;
3257;SDS011;1641;51.306;12.384;2023-07-29T14:11:58;1.23;;;1.10;;
3257;SDS011;1641;51.306;12.384;2023-07-29T14:14:23;1.85;;;1.35;;
3257;SDS011;1641;51.306;12.384;2023-07-29T14:16:48;1.60;;;1.20;;
3257;SDS011;1641;51.306;12.384;2023-07-29T14:19:20;1.23;;;1.13;;
3257;SDS011;1641;51.306;12.384;2023-07-29T14:24:10;1.55;;;1.17;;
3257;SDS011;1641;51.306;12.384;2023-07-29T14:26:35;1.57;;;1.33;;
3257;SDS011;1641;51.306;12.384;2023-07-29T14:29:01;1.30;;;1.00;;
3257;SDS011;1641;51.306;12.384;2023-07-29T14:31:26;1.27;;;1.17;;
3257;SDS011;1641;51.306;12.384;2023-07-29T14:33:51;1.50;;;1.40;;
3257;SDS011;1641;51.306;12.384;2023-07-29T14:36:20;2.88;;;1.35;;
3257;SDS011;1641;51.306;12.384;2023-07-29T14:38:45;2.13;;;1.20;;
3257;SDS011;1641;51.306;12.384;2023-07-29T14:41:10;1.70;;;1.30;;
3257;SDS011;1641;51.306;12.384;2023-07-29T14:43:35;3.55;;;1.20;;
3257;SDS011;1641;51.306;12.384;2023-07-29T14:46:01;1.10;;;1.00;;
3257;SDS011;1641;51.306;12.384;2023-07-29T14:48:27;1.35;;;1.25;;
3257;SDS011;1641;51.306;12.384;2023-07-29T14:51:01;2.30;;;1.35;;
3257;SDS011;1641;51.306;12.384;2023-07-29T14:53:27;2.15;;;1.30;;
3257;SDS011;1641;51.306;12.384;2023-07-29T14:55:52;2.45;;;1.48;;
3257;SDS011;1641;51.306;12.384;2023-07-29T14:58:19;5.15;;;1.50;;
3257;SDS011;1641;51.306;12.384;2023-07-29T15:00:44;2.08;;;1.60;;
3257;SDS011;1641;51.306;12.384;2023-07-29T15:03:09;1.70;;;1.52;;
3257;SDS011;1641;51.306;12.384;2023-07-29T15:05:34;3.08;;;1.42;;
3257;SDS011;1641;51.306;12.384;2023-07-29T15:08:00;3.63;;;1.83;;
3257;SDS011;1641;51.306;12.384;2023-07-29T15:10:25;4.45;;;1.63;;
3257;SDS011;1641;51.306;12.384;2023-07-29T15:12:50;1.98;;;1.67;;